sensor_id;sensor_type;location;lat;lon;timestamp;P1;durP1;ratioP1;P2;durP2;ratioP2
14734;SDS011;7458;49.002;8.472;2022-10-16T00:01:23;3.05;;;2.38;;
14734;SDS011;7458;49.002;8.472;2022-10-16T00:03:54;4.18;;;2.92;;
14734;SDS011;7458;49.002;8.472;2022-10-16T00:06:23;5.35;;;2.92;;
14734;SDS011;7458;49.002;8.472;2022-10-16T00:08:50;6.95;;;2.67;;
14734;SDS011;7458;49.002;8.472;2022-10-16T00:11:25;3.72;;;2.55;;
14734;SDS011;7458;49.002;8.472;2022-10-16T00:14:02;3.55;;;2.47;;
14734;SDS011;7458;49.002;8.472;2022-10-16T00:16:36;4.85;;;3.10;;
14734;SDS011;7458;49.002;8.472;2022-10-16T00:19:02;8.23;;;6.25;;
14734;SDS011;7458;49.002;8.472;2022-10-16T00:21:29;7.47;;;5.13;;
14734;SDS011;7458;49.002;8.472;2022-10-16T00:23:57;5.13;;;2.92;;
14734;SDS011;7458;49.002;8.472;2022-10-16T00:26:27;4.75;;;2.70;;
14734;SDS011;7458;49.002;8.472;2022-10-16T00:28:56;4.32;;;2.92;;
14734;SDS011;7458;49.002;8.472;2022-10-16T00:31:22;4.78;;;3.47;;
14734;SDS011;7458;49.002;8.472;2022-10-16T00:33:49;6.32;;;3.38;;
14734;SDS011;7458;49.002;8.472;2022-10-16T00:36:17;3.08;;;2.58;;
14734;SDS011;7458;49.002;8.472;2022-10-16T00:38:46;5.65;;;3.50;;
14734;SDS011;7458;49.002;8.472;2022-10-16T00:41:17;6.28;;;3.45;;
14734;SDS011;7458;49.002;8.472;2022-10-16T00:43:47;9.75;;;4.10;;
14734;SDS011;7458;49.002;8.472;2022-10-16T00:46:20;3.90;;;2.97;;
14734;SDS011;7458;49.002;8.472;2022-10-16T00:49:10;5.45;;;3.90;;
14734;SDS011;7458;49.002;8.472;2022-10-16T00:51:46;3.67;;;2.60;;
14734;SDS011;7458;49.002;8.472;2022-10-16T00:54:17;7.28;;;2.92;;
14734;SDS011;7458;49.002;8.472;2022-10-16T00:56:47;7.05;;;2.70;;
14734;SDS011;7458;49.002;8.472;2022-10-16T00:59:19;3.20;;;2.85;;
14734;SDS011;7458;49.002;8.472;2022-10-16T01:01:51;8.30;;;2.67;;
14734;SDS011;7458;49.002;8.472;2022-10-16T01:04:18;5.32;;;2.17;;
14734;SDS011;7458;49.002;8.472;2022-10-16T01:12:58;2.60;;;2.35;;
14734;SDS011;7458;49.002;8.472;2022-10-16T01:15:31;4.80;;;2.75;;
14734;SDS011;7458;49.002;8.472;2022-10-16T01:21:02;5.78;;;2.42;;
14734;SDS011;7458;49.002;8.472;2022-10-16T01:23:45;8.52;;;3.42;;
14734;SDS011;7458;49.002;8.472;2022-10-16T01:33:24;5.88;;;2.28;;
14734;SDS011;7458;49.002;8.472;2022-10-16T01:35:36;4.60;;;2.55;;
14734;SDS011;7458;49.002;8.472;2022-10-16T01:38:19;3.33;;;3.03;;
14734;SDS011;7458;49.002;8.472;2022-10-16T01:40:54;3.25;;;2.30;;
14734;SDS011;7458;49.002;8.472;2022-10-16T01:43:33;7.60;;;3.67;;
14734;SDS011;7458;49.002;8.472;2022-10-16T01:46:06;4.53;;;2.53;;
14734;SDS011;7458;49.002;8.472;2022-10-16T01:48:35;3.38;;;2.50;;
14734;SDS011;7458;49.002;8.472;2022-10-16T01:51:06;3.28;;;2.67;;
14734;SDS011;7458;49.002;8.472;2022-10-16T01:53:41;3.28;;;2.45;;
14734;SDS011;7458;49.002;8.472;2022-10-16T01:56:13;6.63;;;3.22;;
14734;SDS011;7458;49.002;8.472;2022-10-16T01:58:47;6.63;;;3.55;;
14734;SDS011;7458;49.002;8.472;2022-10-16T02:01:20;7.13;;;2.55;;
14734;SDS011;7458;49.002;8.472;2022-10-16T02:03:50;3.88;;;2.35;;
14734;SDS011;7458;49.002;8.472;2022-10-16T02:06:22;10.18;;;2.75;;
14734;SDS011;7458;49.002;8.472;2022-10-16T02:08:48;3.42;;;2.25;;
14734;SDS011;7458;49.002;8.472;2022-10-16T02:11:14;9.38;;;3.22;;
14734;SDS011;7458;49.002;8.472;2022-10-16T02:13:51;3.03;;;2.42;;
14734;SDS011;7458;49.002;8.472;2022-10-16T02:16:35;5.65;;;2.70;;
14734;SDS011;7458;49.002;8.472;2022-10-16T02:19:08;4.00;;;2.03;;
14734;SDS011;7458;49.002;8.472;2022-10-16T02:21:42;4.93;;;2.58;;
14734;SDS011;7458;49.002;8.472;2022-10-16T02:27:10;3.35;;;2.38;;
14734;SDS011;7458;49.002;8.472;2022-10-16T02:29:49;4.18;;;2.78;;
14734;SDS011;7458;49.002;8.472;2022-10-16T02:32:24;4.10;;;2.70;;
14734;SDS011;7458;49.002;8.472;2022-10-16T02:34:56;3.53;;;2.78;;
14734;SDS011;7458;49.002;8.472;2022-10-16T02:37:24;9.45;;;3.17;;
14734;SDS011;7458;49.002;8.472;2022-10-16T02:39:52;3.38;;;2.78;;
14734;SDS011;7458;49.002;8.472;2022-10-16T02:42:19;5.00;;;2.80;;
14734;SDS011;7458;49.002;8.472;2022-10-16T02:44:45;5.15;;;2.58;;
14734;SDS011;7458;49.002;8.472;2022-10-16T02:47:11;4.38;;;2.92;;
14734;SDS011;7458;49.002;8.472;2022-10-16T02:49:37;4.63;;;2.42;;
14734;SDS011;7458;49.002;8.472;2022-10-16T02:52:03;3.40;;;2.65;;
14734;SDS011;7458;49.002;8.472;2022-10-16T02:54:29;3.42;;;2.63;;
14734;SDS011;7458;49.002;8.472;2022-10-16T02:56:54;6.80;;;2.38;;
14734;SDS011;7458;49.002;8.472;2022-10-16T02:59:20;5.78;;;3.05;;
14734;SDS011;7458;49.002;8.472;2022-10-16T03:01:46;3.38;;;2.45;;
14734;SDS011;7458;49.002;8.472;2022-10-16T03:04:11;5.57;;;2.97;;
14734;SDS011;7458;49.002;8.472;2022-10-16T03:06:37;10.43;;;3.03;;
14734;SDS011;7458;49.002;8.472;2022-10-16T03:09:03;2.75;;;2.10;;
14734;SDS011;7458;49.002;8.472;2022-10-16T03:11:28;4.88;;;2.78;;
14734;SDS011;7458;49.002;8.472;2022-10-16T03:13:54;3.45;;;2.20;;
14734;SDS011;7458;49.002;8.472;2022-10-16T03:16:19;6.32;;;2.90;;
14734;SDS011;7458;49.002;8.472;2022-10-16T03:18:49;5.20;;;3.58;;
14734;SDS011;7458;49.002;8.472;2022-10-16T03:21:15;4.68;;;3.05;;
14734;SDS011;7458;49.002;8.472;2022-10-16T03:23:41;8.52;;;3.50;;
14734;SDS011;7458;49.002;8.472;2022-10-16T03:26:07;4.88;;;2.58;;
14734;SDS011;7458;49.002;8.472;2022-10-16T03:28:33;7.43;;;3.42;;
14734;SDS011;7458;49.002;8.472;2022-10-16T03:30:58;8.73;;;3.08;;
14734;SDS011;7458;49.002;8.472;2022-10-16T03:33:24;4.65;;;2.88;;
14734;SDS011;7458;49.002;8.472;2022-10-16T03:35:51;3.13;;;2.50;;
14734;SDS011;7458;49.002;8.472;2022-10-16T03:38:18;3.20;;;2.58;;
14734;SDS011;7458;49.002;8.472;2022-10-16T03:40:45;4.05;;;2.63;;
14734;SDS011;7458;49.002;8.472;2022-10-16T03:43:11;8.50;;;3.25;;
14734;SDS011;7458;49.002;8.472;2022-10-16T03:45:36;4.35;;;3.20;;
14734;SDS011;7458;49.002;8.472;2022-10-16T03:48:02;8.35;;;2.78;;
14734;SDS011;7458;49.002;8.472;2022-10-16T03:50:28;4.65;;;2.40;;
14734;SDS011;7458;49.002;8.472;2022-10-16T03:52:54;4.20;;;3.65;;
14734;SDS011;7458;49.002;8.472;2022-10-16T03:55:20;4.72;;;3.28;;
14734;SDS011;7458;49.002;8.472;2022-10-16T03:57:46;3.63;;;2.50;;
14734;SDS011;7458;49.002;8.472;2022-10-16T04:00:12;6.90;;;3.08;;
14734;SDS011;7458;49.002;8.472;2022-10-16T04:02:38;3.60;;;2.80;;
14734;SDS011;7458;49.002;8.472;2022-10-16T04:05:04;3.83;;;2.58;;
14734;SDS011;7458;49.002;8.472;2022-10-16T04:07:30;6.18;;;3.55;;
14734;SDS011;7458;49.002;8.472;2022-10-16T04:09:56;14.73;;;2.58;;
14734;SDS011;7458;49.002;8.472;2022-10-16T04:12:23;4.88;;;2.85;;
14734;SDS011;7458;49.002;8.472;2022-10-16T04:14:50;3.88;;;2.80;;
14734;SDS011;7458;49.002;8.472;2022-10-16T04:17:16;3.53;;;3.20;;
14734;SDS011;7458;49.002;8.472;2022-10-16T04:19:41;5.30;;;2.53;;
14734;SDS011;7458;49.002;8.472;2022-10-16T04:22:07;2.92;;;2.33;;
14734;SDS011;7458;49.002;8.472;2022-10-16T04:24:33;3.90;;;2.45;;
14734;SDS011;7458;49.002;8.472;2022-10-16T04:26:59;4.50;;;3.70;;
14734;SDS011;7458;49.002;8.472;2022-10-16T04:29:25;6.28;;;2.60;;
14734;SDS011;7458;49.002;8.472;2022-10-16T04:31:50;5.05;;;2.58;;
14734;SDS011;7458;49.002;8.472;2022-10-16T04:34:16;4.00;;;2.78;;
14734;SDS011;7458;49.002;8.472;2022-10-16T04:36:42;5.70;;;3.03;;
14734;SDS011;7458;49.002;8.472;2022-10-16T04:39:07;3.40;;;2.50;;
14734;SDS011;7458;49.002;8.472;2022-10-16T04:41:33;4.47;;;2.38;;
14734;SDS011;7458;49.002;8.472;2022-10-16T04:43:59;3.53;;;2.67;;
14734;SDS011;7458;49.002;8.472;2022-10-16T04:46:24;10.68;;;3.08;;
14734;SDS011;7458;49.002;8.472;2022-10-16T04:48:50;6.82;;;3.05;;
14734;SDS011;7458;49.002;8.472;2022-10-16T04:51:16;4.80;;;2.72;;
14734;SDS011;7458;49.002;8.472;2022-10-16T04:53:43;4.63;;;2.83;;
14734;SDS011;7458;49.002;8.472;2022-10-16T04:56:09;8.20;;;3.17;;
14734;SDS011;7458;49.002;8.472;2022-10-16T04:58:35;6.85;;;4.60;;
14734;SDS011;7458;49.002;8.472;2022-10-16T05:01:01;10.35;;;5.20;;
14734;SDS011;7458;49.002;8.472;2022-10-16T05:03:26;8.02;;;4.55;;
14734;SDS011;7458;49.002;8.472;2022-10-16T05:05:52;8.82;;;4.13;;
14734;SDS011;7458;49.002;8.472;2022-10-16T05:08:18;5.78;;;4.20;;
14734;SDS011;7458;49.002;8.472;2022-10-16T05:10:44;7.43;;;3.78;;
14734;SDS011;7458;49.002;8.472;2022-10-16T05:13:10;6.20;;;4.75;;
14734;SDS011;7458;49.002;8.472;2022-10-16T05:15:36;13.30;;;4.65;;
14734;SDS011;7458;49.002;8.472;2022-10-16T05:18:02;6.22;;;3.30;;
14734;SDS011;7458;49.002;8.472;2022-10-16T05:20:28;5.50;;;3.33;;
14734;SDS011;7458;49.002;8.472;2022-10-16T05:22:54;11.05;;;3.35;;
14734;SDS011;7458;49.002;8.472;2022-10-16T05:25:19;5.35;;;3.42;;
14734;SDS011;7458;49.002;8.472;2022-10-16T05:27:48;6.63;;;3.40;;
14734;SDS011;7458;49.002;8.472;2022-10-16T05:30:15;5.68;;;3.20;;
14734;SDS011;7458;49.002;8.472;2022-10-16T05:32:46;6.55;;;3.80;;
14734;SDS011;7458;49.002;8.472;2022-10-16T05:35:16;4.88;;;3.00;;
14734;SDS011;7458;49.002;8.472;2022-10-16T05:37:43;5.30;;;3.97;;
14734;SDS011;7458;49.002;8.472;2022-10-16T05:40:09;5.35;;;3.70;;
14734;SDS011;7458;49.002;8.472;2022-10-16T05:42:36;4.32;;;3.13;;
14734;SDS011;7458;49.002;8.472;2022-10-16T05:45:03;8.70;;;2.92;;
14734;SDS011;7458;49.002;8.472;2022-10-16T05:47:31;4.25;;;2.72;;
14734;SDS011;7458;49.002;8.472;2022-10-16T05:49:57;3.58;;;3.28;;
14734;SDS011;7458;49.002;8.472;2022-10-16T05:52:22;4.43;;;2.55;;
14734;SDS011;7458;49.002;8.472;2022-10-16T05:54:48;8.82;;;3.03;;
14734;SDS011;7458;49.002;8.472;2022-10-16T05:57:14;5.15;;;2.78;;
14734;SDS011;7458;49.002;8.472;2022-10-16T05:59:40;4.75;;;3.58;;
14734;SDS011;7458;49.002;8.472;2022-10-16T06:02:08;6.45;;;2.88;;
14734;SDS011;7458;49.002;8.472;2022-10-16T06:04:38;3.60;;;2.45;;
14734;SDS011;7458;49.002;8.472;2022-10-16T06:07:03;7.03;;;3.72;;
14734;SDS011;7458;49.002;8.472;2022-10-16T06:09:29;18.75;;;3.63;;
14734;SDS011;7458;49.002;8.472;2022-10-16T06:11:55;8.93;;;3.15;;
14734;SDS011;7458;49.002;8.472;2022-10-16T06:14:21;7.55;;;2.97;;
14734;SDS011;7458;49.002;8.472;2022-10-16T06:16:46;3.30;;;2.70;;
14734;SDS011;7458;49.002;8.472;2022-10-16T06:19:12;3.70;;;2.80;;
14734;SDS011;7458;49.002;8.472;2022-10-16T06:21:38;9.52;;;3.08;;
14734;SDS011;7458;49.002;8.472;2022-10-16T06:24:03;6.47;;;3.17;;
14734;SDS011;7458;49.002;8.472;2022-10-16T06:26:30;4.18;;;2.80;;
14734;SDS011;7458;49.002;8.472;2022-10-16T06:28:57;6.68;;;2.97;;
14734;SDS011;7458;49.002;8.472;2022-10-16T06:31:24;4.80;;;1.95;;
14734;SDS011;7458;49.002;8.472;2022-10-16T06:33:54;3.78;;;3.05;;
14734;SDS011;7458;49.002;8.472;2022-10-16T06:36:21;4.05;;;2.70;;
14734;SDS011;7458;49.002;8.472;2022-10-16T06:38:47;7.03;;;2.55;;
14734;SDS011;7458;49.002;8.472;2022-10-16T06:41:14;7.53;;;2.92;;
14734;SDS011;7458;49.002;8.472;2022-10-16T06:43:42;9.68;;;2.92;;
14734;SDS011;7458;49.002;8.472;2022-10-16T06:46:12;4.82;;;3.42;;
14734;SDS011;7458;49.002;8.472;2022-10-16T06:48:41;6.25;;;4.20;;
14734;SDS011;7458;49.002;8.472;2022-10-16T06:53:40;7.55;;;2.92;;
14734;SDS011;7458;49.002;8.472;2022-10-16T06:56:22;8.68;;;2.65;;
14734;SDS011;7458;49.002;8.472;2022-10-16T06:58:53;5.20;;;2.75;;
14734;SDS011;7458;49.002;8.472;2022-10-16T07:01:21;7.80;;;3.33;;
14734;SDS011;7458;49.002;8.472;2022-10-16T07:03:49;3.33;;;2.50;;
14734;SDS011;7458;49.002;8.472;2022-10-16T07:06:17;5.38;;;3.22;;
14734;SDS011;7458;49.002;8.472;2022-10-16T07:08:46;4.05;;;2.95;;
14734;SDS011;7458;49.002;8.472;2022-10-16T07:11:17;5.88;;;4.15;;
14734;SDS011;7458;49.002;8.472;2022-10-16T07:16:49;6.72;;;3.97;;
14734;SDS011;7458;49.002;8.472;2022-10-16T07:19:15;8.32;;;3.83;;
14734;SDS011;7458;49.002;8.472;2022-10-16T07:21:42;7.28;;;3.95;;
14734;SDS011;7458;49.002;8.472;2022-10-16T07:24:13;6.03;;;3.47;;
14734;SDS011;7458;49.002;8.472;2022-10-16T07:26:41;4.97;;;3.20;;
14734;SDS011;7458;49.002;8.472;2022-10-16T07:29:13;6.65;;;3.65;;
14734;SDS011;7458;49.002;8.472;2022-10-16T07:31:47;9.95;;;1.73;;
14734;SDS011;7458;49.002;8.472;2022-10-16T07:34:15;4.10;;;3.25;;
14734;SDS011;7458;49.002;8.472;2022-10-16T07:36:44;6.90;;;2.65;;
14734;SDS011;7458;49.002;8.472;2022-10-16T07:39:12;4.10;;;2.65;;
14734;SDS011;7458;49.002;8.472;2022-10-16T07:41:38;4.63;;;2.42;;
14734;SDS011;7458;49.002;8.472;2022-10-16T07:44:04;12.07;;;2.75;;
14734;SDS011;7458;49.002;8.472;2022-10-16T07:46:31;3.95;;;2.28;;
14734;SDS011;7458;49.002;8.472;2022-10-16T07:48:58;4.13;;;2.35;;
14734;SDS011;7458;49.002;8.472;2022-10-16T07:51:25;4.13;;;2.95;;
14734;SDS011;7458;49.002;8.472;2022-10-16T07:53:51;4.35;;;2.90;;
14734;SDS011;7458;49.002;8.472;2022-10-16T07:56:17;5.65;;;3.00;;
14734;SDS011;7458;49.002;8.472;2022-10-16T07:58:45;13.60;;;2.83;;
14734;SDS011;7458;49.002;8.472;2022-10-16T08:01:11;3.88;;;2.47;;
14734;SDS011;7458;49.002;8.472;2022-10-16T08:03:44;4.80;;;3.08;;
14734;SDS011;7458;49.002;8.472;2022-10-16T08:06:12;4.65;;;2.60;;
14734;SDS011;7458;49.002;8.472;2022-10-16T08:08:39;9.93;;;3.28;;
14734;SDS011;7458;49.002;8.472;2022-10-16T08:11:05;6.15;;;3.17;;
14734;SDS011;7458;49.002;8.472;2022-10-16T08:13:31;5.90;;;4.10;;
14734;SDS011;7458;49.002;8.472;2022-10-16T08:15:57;11.02;;;2.80;;
14734;SDS011;7458;49.002;8.472;2022-10-16T08:18:22;6.13;;;3.10;;
14734;SDS011;7458;49.002;8.472;2022-10-16T08:20:54;4.82;;;2.97;;
14734;SDS011;7458;49.002;8.472;2022-10-16T08:23:25;5.47;;;2.90;;
14734;SDS011;7458;49.002;8.472;2022-10-16T08:25:52;4.70;;;3.28;;
14734;SDS011;7458;49.002;8.472;2022-10-16T08:28:26;7.10;;;3.38;;
14734;SDS011;7458;49.002;8.472;2022-10-16T08:30:52;4.55;;;2.88;;
14734;SDS011;7458;49.002;8.472;2022-10-16T08:33:18;6.03;;;3.00;;
14734;SDS011;7458;49.002;8.472;2022-10-16T08:35:50;5.32;;;3.03;;
14734;SDS011;7458;49.002;8.472;2022-10-16T08:38:18;4.23;;;3.37;;
14734;SDS011;7458;49.002;8.472;2022-10-16T08:40:44;7.65;;;4.97;;
14734;SDS011;7458;49.002;8.472;2022-10-16T08:48:46;7.78;;;3.25;;
14734;SDS011;7458;49.002;8.472;2022-10-16T08:51:23;5.53;;;3.85;;
14734;SDS011;7458;49.002;8.472;2022-10-16T08:54:04;5.47;;;2.90;;
14734;SDS011;7458;49.002;8.472;2022-10-16T09:01:46;13.57;;;2.78;;
14734;SDS011;7458;49.002;8.472;2022-10-16T09:10:52;5.07;;;3.25;;
14734;SDS011;7458;49.002;8.472;2022-10-16T09:17:03;2.55;;;2.33;;
14734;SDS011;7458;49.002;8.472;2022-10-16T09:19:55;3.60;;;2.33;;
14734;SDS011;7458;49.002;8.472;2022-10-16T09:22:28;2.38;;;1.95;;
14734;SDS011;7458;49.002;8.472;2022-10-16T09:24:59;2.38;;;2.05;;
14734;SDS011;7458;49.002;8.472;2022-10-16T09:27:36;6.45;;;3.78;;
14734;SDS011;7458;49.002;8.472;2022-10-16T09:30:10;3.45;;;2.60;;
14734;SDS011;7458;49.002;8.472;2022-10-16T09:32:45;4.57;;;1.92;;
14734;SDS011;7458;49.002;8.472;2022-10-16T09:35:18;4.88;;;3.17;;
14734;SDS011;7458;49.002;8.472;2022-10-16T09:37:51;5.10;;;2.40;;
14734;SDS011;7458;49.002;8.472;2022-10-16T09:40:26;3.92;;;2.50;;
14734;SDS011;7458;49.002;8.472;2022-10-16T09:42:57;8.60;;;7.22;;
14734;SDS011;7458;49.002;8.472;2022-10-16T09:45:59;5.05;;;2.83;;
14734;SDS011;7458;49.002;8.472;2022-10-16T09:51:28;4.88;;;2.75;;
14734;SDS011;7458;49.002;8.472;2022-10-16T09:56:28;5.63;;;2.55;;
14734;SDS011;7458;49.002;8.472;2022-10-16T10:01:45;5.00;;;2.72;;
14734;SDS011;7458;49.002;8.472;2022-10-16T10:04:16;7.78;;;2.17;;
14734;SDS011;7458;49.002;8.472;2022-10-16T10:06:54;6.05;;;2.88;;
14734;SDS011;7458;49.002;8.472;2022-10-16T10:09:26;15.30;;;4.35;;
14734;SDS011;7458;49.002;8.472;2022-10-16T10:12:04;6.32;;;2.70;;
14734;SDS011;7458;49.002;8.472;2022-10-16T10:14:55;7.25;;;3.35;;
14734;SDS011;7458;49.002;8.472;2022-10-16T10:17:27;4.32;;;2.83;;
14734;SDS011;7458;49.002;8.472;2022-10-16T10:19:54;7.22;;;2.85;;
14734;SDS011;7458;49.002;8.472;2022-10-16T10:22:41;2.95;;;2.00;;
14734;SDS011;7458;49.002;8.472;2022-10-16T10:27:42;3.13;;;2.58;;
14734;SDS011;7458;49.002;8.472;2022-10-16T10:30:27;5.82;;;2.83;;
14734;SDS011;7458;49.002;8.472;2022-10-16T10:36:16;8.25;;;2.42;;
14734;SDS011;7458;49.002;8.472;2022-10-16T10:50:43;4.60;;;2.72;;
14734;SDS011;7458;49.002;8.472;2022-10-16T11:03:06;5.85;;;3.60;;
14734;SDS011;7458;49.002;8.472;2022-10-16T11:08:18;3.97;;;3.00;;
14734;SDS011;7458;49.002;8.472;2022-10-16T11:10:54;9.00;;;2.72;;
14734;SDS011;7458;49.002;8.472;2022-10-16T11:13:44;7.28;;;3.20;;
14734;SDS011;7458;49.002;8.472;2022-10-16T11:16:28;5.72;;;2.28;;
14734;SDS011;7458;49.002;8.472;2022-10-16T11:33:37;8.10;;;3.05;;
14734;SDS011;7458;49.002;8.472;2022-10-16T11:36:25;4.00;;;2.28;;
14734;SDS011;7458;49.002;8.472;2022-10-16T11:39:26;5.97;;;2.90;;
14734;SDS011;7458;49.002;8.472;2022-10-16T11:45:22;4.10;;;2.60;;
14734;SDS011;7458;49.002;8.472;2022-10-16T11:48:41;3.47;;;2.40;;
14734;SDS011;7458;49.002;8.472;2022-10-16T11:51:35;5.85;;;3.25;;
14734;SDS011;7458;49.002;8.472;2022-10-16T11:56:54;5.38;;;2.72;;
14734;SDS011;7458;49.002;8.472;2022-10-16T12:02:28;5.38;;;2.28;;
14734;SDS011;7458;49.002;8.472;2022-10-16T12:05:23;5.20;;;2.58;;
14734;SDS011;7458;49.002;8.472;2022-10-16T12:08:13;3.67;;;2.10;;
14734;SDS011;7458;49.002;8.472;2022-10-16T12:10:43;5.47;;;2.97;;
14734;SDS011;7458;49.002;8.472;2022-10-16T12:18:37;4.80;;;2.45;;
14734;SDS011;7458;49.002;8.472;2022-10-16T12:21:09;4.28;;;3.05;;
14734;SDS011;7458;49.002;8.472;2022-10-16T12:23:52;5.28;;;2.75;;
14734;SDS011;7458;49.002;8.472;2022-10-16T12:26:32;2.67;;;2.10;;
14734;SDS011;7458;49.002;8.472;2022-10-16T12:29:14;4.55;;;2.30;;
14734;SDS011;7458;49.002;8.472;2022-10-16T12:31:55;3.40;;;2.42;;
14734;SDS011;7458;49.002;8.472;2022-10-16T12:34:32;5.45;;;2.95;;
14734;SDS011;7458;49.002;8.472;2022-10-16T12:37:15;3.40;;;2.35;;
14734;SDS011;7458;49.002;8.472;2022-10-16T12:39:53;3.42;;;2.67;;
14734;SDS011;7458;49.002;8.472;2022-10-16T12:44:53;4.28;;;2.70;;
14734;SDS011;7458;49.002;8.472;2022-10-16T12:47:22;4.25;;;2.80;;
14734;SDS011;7458;49.002;8.472;2022-10-16T12:50:03;3.42;;;2.55;;
14734;SDS011;7458;49.002;8.472;2022-10-16T12:52:50;4.63;;;2.75;;
14734;SDS011;7458;49.002;8.472;2022-10-16T12:55:16;4.53;;;2.70;;
14734;SDS011;7458;49.002;8.472;2022-10-16T12:58:04;7.60;;;2.67;;
14734;SDS011;7458;49.002;8.472;2022-10-16T13:01:16;15.18;;;2.80;;
14734;SDS011;7458;49.002;8.472;2022-10-16T13:04:47;5.18;;;2.40;;
14734;SDS011;7458;49.002;8.472;2022-10-16T13:10:56;3.55;;;2.47;;
14734;SDS011;7458;49.002;8.472;2022-10-16T13:14:34;2.88;;;1.80;;
14734;SDS011;7458;49.002;8.472;2022-10-16T13:19:44;4.25;;;2.30;;
14734;SDS011;7458;49.002;8.472;2022-10-16T13:27:54;3.45;;;2.50;;
14734;SDS011;7458;49.002;8.472;2022-10-16T13:30:26;4.03;;;2.75;;
14734;SDS011;7458;49.002;8.472;2022-10-16T13:33:00;5.10;;;3.47;;
14734;SDS011;7458;49.002;8.472;2022-10-16T13:35:33;4.40;;;2.30;;
14734;SDS011;7458;49.002;8.472;2022-10-16T13:40:33;5.28;;;2.90;;
14734;SDS011;7458;49.002;8.472;2022-10-16T13:42:59;5.88;;;2.20;;
14734;SDS011;7458;49.002;8.472;2022-10-16T13:45:26;4.57;;;3.33;;
14734;SDS011;7458;49.002;8.472;2022-10-16T13:48:04;8.63;;;2.63;;
14734;SDS011;7458;49.002;8.472;2022-10-16T13:50:34;5.82;;;3.83;;
14734;SDS011;7458;49.002;8.472;2022-10-16T13:53:07;7.97;;;3.80;;
14734;SDS011;7458;49.002;8.472;2022-10-16T13:55:39;3.83;;;3.22;;
14734;SDS011;7458;49.002;8.472;2022-10-16T13:58:10;6.70;;;4.07;;
14734;SDS011;7458;49.002;8.472;2022-10-16T14:00:39;3.60;;;3.22;;
14734;SDS011;7458;49.002;8.472;2022-10-16T14:03:21;9.57;;;3.53;;
14734;SDS011;7458;49.002;8.472;2022-10-16T14:05:55;4.63;;;3.67;;
14734;SDS011;7458;49.002;8.472;2022-10-16T14:08:25;5.57;;;3.13;;
14734;SDS011;7458;49.002;8.472;2022-10-16T14:10:55;8.15;;;3.25;;
14734;SDS011;7458;49.002;8.472;2022-10-16T14:13:34;9.05;;;3.75;;
14734;SDS011;7458;49.002;8.472;2022-10-16T14:16:09;7.57;;;2.90;;
14734;SDS011;7458;49.002;8.472;2022-10-16T14:18:44;5.72;;;3.35;;
14734;SDS011;7458;49.002;8.472;2022-10-16T14:21:35;14.15;;;3.38;;
14734;SDS011;7458;49.002;8.472;2022-10-16T14:24:12;10.48;;;4.13;;
14734;SDS011;7458;49.002;8.472;2022-10-16T14:27:20;5.00;;;2.85;;
14734;SDS011;7458;49.002;8.472;2022-10-16T14:30:18;8.98;;;3.45;;
14734;SDS011;7458;49.002;8.472;2022-10-16T14:32:54;5.28;;;3.30;;
14734;SDS011;7458;49.002;8.472;2022-10-16T14:35:33;4.53;;;2.63;;
14734;SDS011;7458;49.002;8.472;2022-10-16T14:38:02;10.93;;;3.05;;
14734;SDS011;7458;49.002;8.472;2022-10-16T14:40:31;11.07;;;3.45;;
14734;SDS011;7458;49.002;8.472;2022-10-16T14:43:01;4.68;;;2.92;;
14734;SDS011;7458;49.002;8.472;2022-10-16T14:45:30;9.15;;;2.75;;
14734;SDS011;7458;49.002;8.472;2022-10-16T14:48:01;4.80;;;2.53;;
14734;SDS011;7458;49.002;8.472;2022-10-16T14:50:39;3.40;;;2.22;;
14734;SDS011;7458;49.002;8.472;2022-10-16T14:53:10;3.13;;;2.42;;
14734;SDS011;7458;49.002;8.472;2022-10-16T14:55:38;5.15;;;2.78;;
14734;SDS011;7458;49.002;8.472;2022-10-16T14:58:05;3.22;;;2.78;;
14734;SDS011;7458;49.002;8.472;2022-10-16T15:00:42;5.05;;;3.08;;
14734;SDS011;7458;49.002;8.472;2022-10-16T15:03:08;2.80;;;2.47;;
14734;SDS011;7458;49.002;8.472;2022-10-16T15:05:34;3.38;;;2.80;;
14734;SDS011;7458;49.002;8.472;2022-10-16T15:08:00;4.38;;;2.85;;
14734;SDS011;7458;49.002;8.472;2022-10-16T15:10:27;5.95;;;2.45;;
14734;SDS011;7458;49.002;8.472;2022-10-16T15:12:54;4.70;;;2.50;;
14734;SDS011;7458;49.002;8.472;2022-10-16T15:17:56;11.07;;;4.20;;
14734;SDS011;7458;49.002;8.472;2022-10-16T15:20:23;4.32;;;2.85;;
14734;SDS011;7458;49.002;8.472;2022-10-16T15:22:50;5.72;;;3.42;;
14734;SDS011;7458;49.002;8.472;2022-10-16T15:25:25;3.92;;;3.13;;
14734;SDS011;7458;49.002;8.472;2022-10-16T15:28:07;4.97;;;2.72;;
14734;SDS011;7458;49.002;8.472;2022-10-16T15:30:34;5.45;;;3.00;;
14734;SDS011;7458;49.002;8.472;2022-10-16T15:33:02;13.85;;;2.90;;
14734;SDS011;7458;49.002;8.472;2022-10-16T15:35:29;3.15;;;2.85;;
14734;SDS011;7458;49.002;8.472;2022-10-16T15:37:56;7.72;;;4.03;;
14734;SDS011;7458;49.002;8.472;2022-10-16T15:40:22;6.40;;;3.13;;
14734;SDS011;7458;49.002;8.472;2022-10-16T15:42:48;6.75;;;3.15;;
14734;SDS011;7458;49.002;8.472;2022-10-16T15:45:15;5.85;;;3.13;;
14734;SDS011;7458;49.002;8.472;2022-10-16T15:47:41;6.15;;;3.30;;
14734;SDS011;7458;49.002;8.472;2022-10-16T15:50:09;7.18;;;3.47;;
14734;SDS011;7458;49.002;8.472;2022-10-16T15:52:37;10.88;;;3.38;;
14734;SDS011;7458;49.002;8.472;2022-10-16T15:55:04;11.43;;;3.47;;
14734;SDS011;7458;49.002;8.472;2022-10-16T15:57:35;5.03;;;3.65;;
14734;SDS011;7458;49.002;8.472;2022-10-16T16:00:07;5.35;;;2.88;;
14734;SDS011;7458;49.002;8.472;2022-10-16T16:02:40;7.63;;;3.83;;
14734;SDS011;7458;49.002;8.472;2022-10-16T16:05:08;4.90;;;3.28;;
14734;SDS011;7458;49.002;8.472;2022-10-16T16:07:36;7.10;;;3.85;;
14734;SDS011;7458;49.002;8.472;2022-10-16T16:10:04;11.50;;;4.65;;
14734;SDS011;7458;49.002;8.472;2022-10-16T16:12:33;5.03;;;4.43;;
14734;SDS011;7458;49.002;8.472;2022-10-16T16:14:59;4.70;;;2.97;;
14734;SDS011;7458;49.002;8.472;2022-10-16T16:17:25;8.25;;;4.28;;
14734;SDS011;7458;49.002;8.472;2022-10-16T16:19:51;7.10;;;5.25;;
14734;SDS011;7458;49.002;8.472;2022-10-16T16:22:17;8.63;;;5.28;;
14734;SDS011;7458;49.002;8.472;2022-10-16T16:24:43;10.63;;;5.40;;
14734;SDS011;7458;49.002;8.472;2022-10-16T16:27:08;6.60;;;5.25;;
14734;SDS011;7458;49.002;8.472;2022-10-16T16:29:34;6.85;;;4.22;;
14734;SDS011;7458;49.002;8.472;2022-10-16T16:32:00;6.88;;;5.13;;
14734;SDS011;7458;49.002;8.472;2022-10-16T16:34:27;15.82;;;4.70;;
14734;SDS011;7458;49.002;8.472;2022-10-16T16:36:54;7.47;;;5.05;;
14734;SDS011;7458;49.002;8.472;2022-10-16T16:39:21;9.70;;;4.55;;
14734;SDS011;7458;49.002;8.472;2022-10-16T16:41:48;7.50;;;4.40;;
14734;SDS011;7458;49.002;8.472;2022-10-16T16:44:15;7.45;;;4.30;;
14734;SDS011;7458;49.002;8.472;2022-10-16T16:46:42;8.25;;;4.45;;
14734;SDS011;7458;49.002;8.472;2022-10-16T16:49:11;4.70;;;3.88;;
14734;SDS011;7458;49.002;8.472;2022-10-16T16:51:39;13.82;;;4.75;;
14734;SDS011;7458;49.002;8.472;2022-10-16T16:54:06;12.88;;;5.10;;
14734;SDS011;7458;49.002;8.472;2022-10-16T16:56:34;9.05;;;4.65;;
14734;SDS011;7458;49.002;8.472;2022-10-16T16:59:00;14.25;;;5.82;;
14734;SDS011;7458;49.002;8.472;2022-10-16T17:01:26;7.22;;;4.97;;
14734;SDS011;7458;49.002;8.472;2022-10-16T17:03:54;5.70;;;5.03;;
14734;SDS011;7458;49.002;8.472;2022-10-16T17:06:22;6.80;;;4.30;;
14734;SDS011;7458;49.002;8.472;2022-10-16T17:08:54;11.63;;;5.35;;
14734;SDS011;7458;49.002;8.472;2022-10-16T17:11:22;12.18;;;6.00;;
14734;SDS011;7458;49.002;8.472;2022-10-16T17:13:51;6.65;;;5.18;;
14734;SDS011;7458;49.002;8.472;2022-10-16T17:16:19;13.57;;;6.50;;
14734;SDS011;7458;49.002;8.472;2022-10-16T17:18:47;7.82;;;6.32;;
14734;SDS011;7458;49.002;8.472;2022-10-16T17:21:13;6.68;;;5.68;;
14734;SDS011;7458;49.002;8.472;2022-10-16T17:23:39;13.50;;;5.43;;
14734;SDS011;7458;49.002;8.472;2022-10-16T17:26:09;9.52;;;5.72;;
14734;SDS011;7458;49.002;8.472;2022-10-16T17:28:38;10.95;;;7.35;;
14734;SDS011;7458;49.002;8.472;2022-10-16T17:31:16;20.70;;;8.30;;
14734;SDS011;7458;49.002;8.472;2022-10-16T17:33:45;15.75;;;7.53;;
14734;SDS011;7458;49.002;8.472;2022-10-16T17:36:12;10.43;;;5.95;;